createdAt,value
2022-10-24T00:00:08.055Z,15.91
2022-10-24T00:01:07.965Z,15.86
2022-10-24T00:02:07.980Z,15.85
2022-10-24T00:03:08.077Z,15.84
2022-10-24T00:04:08.070Z,15.85
2022-10-24T00:05:08.083Z,15.89
2022-10-24T00:06:08.123Z,15.91
2022-10-24T00:07:08.163Z,15.93
2022-10-24T00:08:08.186Z,15.95
2022-10-24T00:09:08.220Z,15.89
2022-10-24T00:10:08.255Z,15.86
2022-10-24T00:11:08.290Z,15.92
2022-10-24T00:12:08.329Z,15.95
2022-10-24T00:13:08.360Z,15.93
2022-10-24T00:14:08.393Z,15.86
2022-10-24T00:15:08.429Z,15.92
2022-10-24T00:16:08.462Z,15.93
2022-10-24T00:17:08.500Z,15.93
2022-10-24T00:18:08.531Z,15.95
2022-10-24T00:19:08.566Z,15.86
2022-10-24T00:20:08.601Z,15.86
2022-10-24T00:21:08.634Z,15.89
2022-10-24T00:22:08.669Z,15.85
2022-10-24T00:23:08.703Z,15.91
2022-10-24T00:24:08.744Z,15.78
2022-10-24T00:25:08.819Z,15.80
2022-10-24T00:26:08.805Z,15.78
2022-10-24T00:27:08.842Z,15.81
2022-10-24T00:28:08.878Z,15.81
2022-10-24T00:29:08.914Z,15.85
2022-10-24T00:30:08.946Z,15.88
2022-10-24T00:31:08.980Z,15.86
2022-10-24T00:32:09.013Z,15.88
2022-10-24T00:33:09.049Z,15.91
2022-10-24T00:34:09.086Z,15.92
2022-10-24T00:35:09.115Z,15.89
2022-10-24T00:36:09.151Z,15.78
2022-10-24T00:37:09.222Z,15.85
2022-10-24T00:38:09.228Z,15.88
2022-10-24T00:39:09.256Z,15.89
2022-10-24T00:40:09.294Z,15.85
2022-10-24T00:41:09.323Z,15.89
2022-10-24T00:42:09.359Z,15.91
2022-10-24T00:43:09.392Z,15.86
2022-10-24T00:44:09.426Z,15.85
2022-10-24T00:45:09.463Z,15.80
2022-10-24T00:46:09.495Z,15.81
2022-10-24T00:47:09.530Z,15.85
2022-10-24T00:48:09.565Z,15.81
2022-10-24T00:49:09.601Z,15.88
2022-10-24T00:50:09.632Z,15.86
2022-10-24T00:51:09.672Z,15.85
2022-10-24T00:52:09.704Z,15.81
2022-10-24T00:53:09.736Z,15.85
2022-10-24T00:54:09.776Z,15.85
2022-10-24T00:55:09.807Z,15.78
2022-10-24T00:56:09.840Z,15.81
2022-10-24T00:57:09.874Z,15.78
2022-10-24T00:58:09.906Z,15.77
2022-10-24T00:59:09.943Z,15.81
2022-10-24T01:00:09.980Z,15.73
2022-10-24T01:01:10.148Z,15.67
2022-10-24T01:02:10.105Z,15.55
2022-10-24T01:03:10.082Z,15.56
2022-10-24T01:04:10.118Z,15.58
2022-10-24T01:05:10.150Z,15.56
2022-10-24T01:06:10.182Z,15.49
2022-10-24T01:07:10.218Z,15.46
2022-10-24T01:08:10.252Z,15.52
2022-10-24T01:09:10.285Z,15.48
2022-10-24T01:10:10.319Z,15.46
2022-10-24T01:11:10.357Z,15.40
2022-10-24T01:12:10.389Z,15.49
2022-10-24T01:13:10.427Z,15.49
2022-10-24T01:14:10.457Z,15.46
2022-10-24T01:15:10.493Z,15.44
2022-10-24T01:16:10.527Z,15.44
2022-10-24T01:17:10.561Z,15.41
2022-10-24T01:18:10.590Z,15.43
2022-10-24T01:19:10.640Z,15.49
2022-10-24T01:20:10.661Z,15.55
2022-10-24T01:21:10.695Z,15.48
2022-10-24T01:22:10.728Z,15.53
2022-10-24T01:23:10.762Z,15.51
2022-10-24T01:24:10.798Z,15.51
2022-10-24T01:25:10.830Z,15.51
2022-10-24T01:26:10.867Z,15.49
2022-10-24T01:27:10.941Z,15.53
2022-10-24T01:28:10.933Z,15.51
2022-10-24T01:29:10.968Z,15.52
2022-10-24T01:30:11.004Z,15.56
2022-10-24T01:31:11.038Z,15.58
2022-10-24T01:32:11.070Z,15.58
2022-10-24T01:33:11.107Z,15.59
2022-10-24T01:34:11.147Z,15.55
2022-10-24T01:35:11.175Z,15.48
2022-10-24T01:36:11.207Z,15.60
2022-10-24T01:37:11.241Z,15.55
2022-10-24T01:38:11.274Z,15.64
2022-10-24T01:39:11.312Z,15.58
2022-10-24T01:40:11.344Z,15.56
2022-10-24T01:41:11.379Z,15.53
2022-10-24T01:42:11.412Z,15.66
2022-10-24T01:43:11.449Z,15.53
2022-10-24T01:44:11.481Z,15.52
2022-10-24T01:45:11.517Z,15.44
2022-10-24T01:46:11.550Z,15.52
2022-10-24T01:47:11.595Z,15.48
2022-10-24T01:48:11.618Z,15.51
2022-10-24T01:49:11.658Z,15.52
2022-10-24T01:50:11.688Z,15.49
2022-10-24T01:51:11.722Z,15.52
2022-10-24T01:53:11.790Z,15.59
2022-10-24T01:54:11.822Z,15.52
2022-10-24T01:55:11.871Z,15.52
2022-10-24T01:56:11.892Z,15.46
2022-10-24T01:57:11.926Z,15.49
2022-10-24T01:58:11.961Z,15.51
2022-10-24T01:59:11.995Z,15.52
2022-10-24T02:00:12.028Z,15.51
2022-10-24T02:01:12.131Z,15.51
2022-10-24T02:02:12.096Z,15.48
2022-10-24T02:03:12.132Z,15.51
2022-10-24T02:04:12.168Z,15.48
2022-10-24T02:05:12.209Z,15.52
2022-10-24T02:06:12.233Z,15.53
2022-10-24T02:07:12.270Z,15.52
2022-10-24T02:08:12.301Z,15.52
2022-10-24T02:09:12.336Z,15.48
2022-10-24T02:10:12.370Z,15.58
2022-10-24T02:11:12.408Z,15.60
2022-10-24T02:12:12.440Z,15.53
2022-10-24T02:13:12.473Z,15.51
2022-10-24T02:14:12.507Z,15.56
2022-10-24T02:15:12.541Z,15.59
2022-10-24T02:16:12.577Z,15.52
2022-10-24T02:17:12.611Z,15.59
2022-10-24T02:18:12.645Z,15.48
2022-10-24T02:19:12.679Z,15.51
2022-10-24T02:20:12.712Z,15.58
2022-10-24T02:21:12.749Z,15.51
2022-10-24T02:22:12.780Z,15.52
2022-10-24T02:23:12.816Z,15.49
2022-10-24T02:24:12.851Z,15.62
2022-10-24T02:25:12.883Z,15.62
2022-10-24T02:26:12.918Z,15.60
2022-10-24T02:27:12.954Z,15.60
2022-10-24T02:28:12.988Z,15.62
2022-10-24T02:29:13.021Z,15.60
2022-10-24T02:30:13.054Z,15.53
2022-10-24T02:31:13.091Z,15.51
2022-10-24T02:32:13.123Z,15.56
2022-10-24T02:33:13.157Z,15.52
2022-10-24T02:34:13.194Z,15.51
2022-10-24T02:35:13.229Z,15.58
2022-10-24T02:36:13.261Z,15.56
2022-10-24T02:37:13.294Z,15.52
2022-10-24T02:38:13.328Z,15.48
2022-10-24T02:39:13.364Z,15.51
2022-10-24T02:40:13.397Z,15.64
2022-10-24T02:41:13.434Z,15.60
2022-10-24T02:42:13.467Z,15.60
2022-10-24T02:43:13.503Z,15.64
2022-10-24T02:44:13.533Z,15.60
2022-10-24T02:45:13.568Z,15.55
2022-10-24T02:46:13.602Z,15.56
2022-10-24T02:47:13.639Z,15.55
2022-10-24T02:48:13.672Z,15.56
2022-10-24T02:49:13.706Z,15.44
2022-10-24T02:50:13.742Z,15.52
2022-10-24T02:51:13.776Z,15.52
2022-10-24T02:52:13.808Z,15.53
2022-10-24T02:53:13.843Z,15.48
2022-10-24T02:54:13.877Z,15.49
2022-10-24T02:55:13.911Z,15.58
2022-10-24T02:56:13.945Z,15.58
2022-10-24T02:57:13.979Z,15.52
2022-10-24T02:58:14.022Z,15.49
2022-10-24T02:59:14.056Z,15.52
2022-10-24T03:00:14.087Z,15.55
2022-10-24T03:01:14.255Z,15.43
2022-10-24T03:02:14.152Z,15.44
2022-10-24T03:03:14.188Z,15.51
2022-10-24T03:04:14.221Z,15.51
2022-10-24T03:05:14.253Z,15.51
2022-10-24T03:06:14.287Z,15.48
2022-10-24T03:07:14.321Z,15.46
2022-10-24T03:08:14.356Z,15.44
2022-10-24T03:09:14.391Z,15.46
2022-10-24T03:10:14.425Z,15.52
2022-10-24T03:11:14.460Z,15.49
2022-10-24T03:12:14.491Z,15.46
2022-10-24T03:13:14.528Z,15.43
2022-10-24T03:14:14.560Z,15.44
2022-10-24T03:15:14.600Z,15.52
2022-10-24T03:16:14.628Z,15.49
2022-10-24T03:17:14.665Z,15.49
2022-10-24T03:18:14.697Z,15.52
2022-10-24T03:19:14.733Z,15.44
2022-10-24T03:20:14.767Z,15.49
2022-10-24T03:21:14.800Z,15.49
2022-10-24T03:22:14.838Z,15.53
2022-10-24T03:23:14.868Z,15.51
2022-10-24T03:24:19.504Z,15.43
2022-10-24T03:25:15.031Z,15.49
2022-10-24T03:26:14.970Z,15.46
2022-10-24T03:27:15.006Z,15.44
2022-10-24T03:28:15.047Z,15.49
2022-10-24T03:29:15.076Z,15.40
2022-10-24T03:30:15.115Z,15.49
2022-10-24T03:31:15.144Z,15.48
2022-10-24T03:32:15.265Z,15.49
2022-10-24T03:33:15.210Z,15.49
2022-10-24T03:34:15.246Z,15.38
2022-10-24T03:35:15.279Z,15.46
2022-10-24T03:36:15.314Z,15.48
2022-10-24T03:37:15.350Z,15.46
2022-10-24T03:38:15.383Z,15.44
2022-10-24T03:39:15.418Z,15.49
2022-10-24T03:40:15.449Z,15.49
2022-10-24T03:41:15.537Z,15.44
2022-10-24T03:42:15.539Z,15.38
2022-10-24T03:43:15.557Z,15.41
2022-10-24T03:44:15.586Z,15.38
2022-10-24T03:45:15.625Z,15.44
2022-10-24T03:46:15.655Z,15.35
2022-10-24T03:47:15.693Z,15.33
2022-10-24T03:48:15.725Z,15.28
2022-10-24T03:49:15.778Z,15.23
2022-10-24T03:50:15.792Z,15.31
2022-10-24T03:51:15.830Z,15.34
2022-10-24T03:52:15.861Z,15.28
2022-10-24T03:53:15.895Z,15.35
2022-10-24T03:54:15.927Z,15.35
2022-10-24T03:55:15.963Z,15.28
2022-10-24T03:56:15.997Z,15.27
2022-10-24T03:57:16.093Z,15.23
2022-10-24T03:58:16.070Z,15.27
2022-10-24T03:59:16.103Z,15.25
2022-10-24T04:00:16.138Z,15.23
2022-10-24T04:01:16.344Z,15.22
2022-10-24T04:02:16.202Z,15.23
2022-10-24T04:03:16.236Z,15.22
2022-10-24T04:04:16.272Z,15.13
2022-10-24T04:05:16.304Z,15.20
2022-10-24T04:06:16.339Z,15.19
2022-10-24T04:07:16.373Z,15.15
2022-10-24T04:08:16.409Z,15.15
2022-10-24T04:09:16.440Z,15.15
2022-10-24T04:10:16.481Z,15.16
2022-10-24T04:11:16.510Z,15.18
2022-10-24T04:12:16.543Z,15.19
2022-10-24T04:13:16.581Z,15.19
2022-10-24T04:14:16.611Z,15.12
2022-10-24T04:15:16.656Z,15.12
2022-10-24T04:16:16.680Z,15.13
2022-10-24T04:17:16.715Z,15.01
2022-10-24T04:18:16.748Z,15.09
2022-10-24T04:20:34.488Z,15.05
2022-10-24T04:21:34.490Z,15.01
2022-10-24T04:23:27.644Z,15.07
2022-10-24T04:24:27.678Z,15.01
2022-10-24T04:26:31.757Z,15.04
2022-10-24T04:27:31.742Z,15.05
2022-10-24T04:29:24.894Z,15.07
2022-10-24T04:30:24.925Z,15.03
2022-10-24T04:32:28.975Z,15.18
2022-10-24T04:33:29.007Z,15.13
2022-10-24T04:35:22.048Z,15.15
2022-10-24T04:36:22.075Z,15.16
2022-10-24T04:38:27.841Z,15.15
2022-10-24T04:39:26.180Z,15.09
2022-10-24T04:41:41.352Z,15.05
2022-10-24T04:42:41.360Z,15.04
2022-10-24T04:44:34.544Z,15.05
2022-10-24T04:45:34.573Z,15.04
2022-10-24T04:47:27.731Z,14.97
2022-10-24T04:48:27.759Z,15.00
2022-10-24T04:50:20.755Z,15.03
2022-10-24T04:51:22.446Z,15.01
2022-10-24T04:53:24.811Z,15.07
2022-10-24T04:54:24.836Z,15.09
2022-10-24T04:56:17.847Z,15.04
2022-10-24T04:57:17.880Z,15.09
2022-10-24T04:59:11.075Z,15.12
2022-10-24T05:00:11.076Z,14.95
2022-10-24T05:02:04.300Z,14.98
2022-10-24T05:03:04.258Z,15.07
2022-10-24T05:04:57.414Z,14.97
2022-10-24T05:05:57.445Z,15.00
2022-10-24T05:08:01.500Z,14.95
2022-10-24T05:09:01.530Z,14.97
2022-10-24T05:10:54.489Z,15.04
2022-10-24T05:11:54.518Z,15.05
2022-10-24T05:13:47.698Z,14.98
2022-10-24T05:14:47.703Z,15.00
2022-10-24T05:16:51.778Z,15.07
2022-10-24T05:17:51.805Z,14.97
2022-10-24T05:19:44.968Z,14.98
2022-10-24T05:20:45.011Z,15.07
2022-10-24T05:22:38.655Z,15.07
2022-10-24T05:23:38.680Z,15.04
2022-10-24T05:24:38.720Z,14.98
2022-10-24T05:25:38.752Z,14.98
2022-10-24T05:26:38.785Z,14.98
2022-10-24T05:27:38.818Z,14.91
2022-10-24T05:28:38.852Z,14.91
2022-10-24T05:29:38.887Z,15.00
2022-10-24T05:30:38.919Z,15.01
2022-10-24T05:31:38.957Z,14.93
2022-10-24T05:32:39.775Z,14.98
2022-10-24T05:33:39.026Z,14.94
2022-10-24T05:34:39.060Z,14.95
2022-10-24T05:35:39.089Z,14.91
2022-10-24T05:36:39.122Z,14.91
2022-10-24T05:37:39.315Z,14.97
2022-10-24T05:38:39.190Z,14.95
2022-10-24T05:39:39.226Z,15.00
2022-10-24T05:40:39.257Z,14.90
2022-10-24T05:41:43.294Z,14.86
2022-10-24T05:42:39.326Z,14.86
2022-10-24T05:43:39.361Z,14.94
2022-10-24T05:44:39.405Z,14.94
2022-10-24T05:45:39.503Z,15.00
2022-10-24T05:46:39.462Z,14.97
2022-10-24T05:47:39.495Z,14.94
2022-10-24T05:48:39.533Z,15.00
2022-10-24T05:49:39.564Z,15.01
2022-10-24T05:50:39.597Z,15.03
2022-10-24T05:51:39.631Z,14.94
2022-10-24T05:52:43.262Z,14.91
2022-10-24T05:53:39.699Z,15.01
2022-10-24T05:54:55.417Z,14.91
2022-10-24T05:55:39.768Z,14.91
2022-10-24T05:56:39.806Z,14.87
2022-10-24T05:57:39.836Z,14.93
2022-10-24T05:58:39.869Z,14.95
2022-10-24T05:59:39.903Z,14.98
2022-10-24T06:00:39.937Z,15.03
2022-10-24T06:01:40.098Z,15.00
2022-10-24T06:02:40.198Z,14.94
2022-10-24T06:03:40.039Z,15.03
2022-10-24T06:04:40.073Z,14.97
2022-10-24T06:05:40.109Z,15.07
2022-10-24T06:06:40.142Z,15.05
2022-10-24T06:07:40.175Z,15.11
2022-10-24T06:08:40.208Z,15.03
2022-10-24T06:09:40.244Z,15.01
2022-10-24T06:10:40.275Z,15.05
2022-10-24T06:11:40.312Z,15.05
2022-10-24T06:12:40.345Z,15.09
2022-10-24T06:13:40.378Z,15.11
2022-10-24T06:14:40.411Z,15.05
2022-10-24T06:15:40.445Z,15.05
2022-10-24T06:16:40.480Z,15.19
2022-10-24T06:17:40.517Z,15.16
2022-10-24T06:18:40.587Z,15.15
2022-10-24T06:19:40.627Z,15.18
2022-10-24T06:20:40.617Z,15.13
2022-10-24T06:21:40.650Z,15.18
2022-10-24T06:22:40.683Z,15.22
2022-10-24T06:23:40.718Z,15.22
2022-10-24T06:24:40.754Z,15.27
2022-10-24T06:25:40.786Z,15.22
2022-10-24T06:26:40.821Z,15.22
2022-10-24T06:27:40.854Z,15.20
2022-10-24T06:28:40.887Z,15.23
2022-10-24T06:29:40.922Z,15.19
2022-10-24T06:30:40.958Z,15.25
2022-10-24T06:31:40.991Z,15.23
2022-10-24T06:32:43.734Z,15.31
2022-10-24T06:33:41.059Z,15.31
2022-10-24T06:34:41.094Z,15.28
2022-10-24T06:35:41.127Z,15.23
2022-10-24T06:37:43.042Z,15.31
2022-10-24T06:38:41.238Z,15.27
2022-10-24T06:39:41.265Z,15.33
2022-10-24T06:40:41.295Z,15.31
2022-10-24T06:41:41.334Z,15.27
2022-10-24T06:42:41.366Z,15.35
2022-10-24T06:43:41.403Z,15.22
2022-10-24T06:44:41.433Z,15.33
2022-10-24T06:45:41.470Z,15.20
2022-10-24T06:46:41.501Z,15.27
2022-10-24T06:47:41.536Z,15.20
2022-10-24T06:48:41.569Z,15.31
2022-10-24T06:49:41.606Z,15.28
2022-10-24T06:50:41.644Z,15.23
2022-10-24T06:51:41.672Z,15.31
2022-10-24T06:52:41.716Z,15.23
2022-10-24T06:53:41.741Z,15.35
2022-10-24T06:54:41.775Z,15.33
2022-10-24T06:55:41.808Z,15.28
2022-10-24T06:56:41.842Z,15.33
2022-10-24T06:57:42.108Z,15.31
2022-10-24T06:58:41.911Z,15.40
2022-10-24T06:59:41.946Z,15.35
2022-10-24T07:00:41.983Z,15.41
2022-10-24T07:01:42.116Z,15.34
2022-10-24T07:02:42.322Z,15.38
2022-10-24T07:03:42.082Z,15.35
2022-10-24T07:04:42.118Z,15.43
2022-10-24T07:05:42.150Z,15.37
2022-10-24T07:06:42.186Z,15.37
2022-10-24T07:07:42.546Z,15.33
2022-10-24T07:08:42.278Z,15.37
2022-10-24T07:09:42.288Z,15.44
2022-10-24T07:10:42.319Z,15.38
2022-10-24T07:11:42.356Z,15.38
2022-10-24T07:12:42.658Z,15.43
2022-10-24T07:13:42.434Z,15.44
2022-10-24T07:14:42.457Z,15.52
2022-10-24T07:15:42.492Z,15.40
2022-10-24T07:16:42.526Z,15.46
2022-10-24T07:17:42.561Z,15.38
2022-10-24T07:18:42.595Z,15.46
2022-10-24T07:19:42.629Z,15.44
2022-10-24T07:20:42.662Z,15.40
2022-10-24T07:21:42.697Z,15.44
2022-10-24T07:22:42.732Z,15.43
2022-10-24T07:23:42.763Z,15.40
2022-10-24T07:24:42.798Z,15.49
2022-10-24T07:25:42.835Z,15.40
2022-10-24T07:26:42.867Z,15.35
2022-10-24T07:27:42.904Z,15.34
2022-10-24T07:28:42.938Z,15.41
2022-10-24T07:29:42.969Z,15.48
2022-10-24T07:30:43.003Z,15.40
2022-10-24T07:31:43.039Z,15.46
2022-10-24T07:32:43.367Z,15.48
2022-10-24T07:33:43.106Z,15.48
2022-10-24T07:34:43.138Z,15.49
2022-10-24T07:35:43.173Z,15.53
2022-10-24T07:36:44.001Z,15.49
2022-10-24T07:37:43.419Z,15.53
2022-10-24T07:38:43.313Z,15.48
2022-10-24T07:39:43.312Z,15.58
2022-10-24T07:40:43.344Z,15.60
2022-10-24T07:41:43.380Z,15.53
2022-10-24T07:42:43.415Z,15.56
2022-10-24T07:43:43.446Z,15.55
2022-10-24T07:44:43.479Z,15.60
2022-10-24T07:45:47.765Z,15.67
2022-10-24T07:46:43.549Z,15.59
2022-10-24T07:47:43.901Z,15.67
2022-10-24T07:48:43.618Z,15.64
2022-10-24T07:49:43.654Z,15.74
2022-10-24T07:50:43.687Z,15.73
2022-10-24T07:51:43.720Z,15.74
2022-10-24T07:52:43.754Z,15.74
2022-10-24T07:53:43.788Z,15.78
2022-10-24T07:54:43.831Z,15.88
2022-10-24T07:55:43.859Z,15.86
2022-10-24T07:56:43.908Z,15.91
2022-10-24T07:57:44.238Z,15.88
2022-10-24T07:58:43.968Z,15.91
2022-10-24T07:59:43.996Z,15.88
2022-10-24T08:00:45.401Z,16.01
2022-10-24T08:01:44.167Z,15.95
2022-10-24T08:02:44.157Z,15.98
2022-10-24T08:03:44.130Z,16.01
2022-10-24T08:04:44.165Z,16.03
2022-10-24T08:05:44.199Z,16.01
2022-10-24T08:06:44.237Z,16.08
2022-10-24T08:07:48.592Z,16.10
2022-10-24T08:08:44.303Z,16.11
2022-10-24T08:09:44.340Z,16.08
2022-10-24T08:10:44.371Z,16.06
2022-10-24T08:11:44.406Z,16.11
2022-10-24T08:12:44.827Z,16.22
2022-10-24T08:13:44.476Z,16.25
2022-10-24T08:14:44.515Z,16.26
2022-10-24T08:15:44.544Z,16.26
2022-10-24T08:16:44.579Z,16.36
2022-10-24T08:17:44.612Z,16.36
2022-10-24T08:18:44.646Z,16.41
2022-10-24T08:19:44.681Z,16.40
2022-10-24T08:20:44.715Z,16.42
2022-10-24T08:21:44.749Z,16.51
2022-10-24T08:22:45.004Z,16.41
2022-10-24T08:23:44.818Z,16.54
2022-10-24T08:24:44.852Z,16.54
2022-10-24T08:25:44.924Z,16.55
2022-10-24T08:26:44.922Z,16.57
2022-10-24T08:27:44.958Z,16.59
2022-10-24T08:28:44.993Z,16.67
2022-10-24T08:29:45.031Z,16.67
2022-10-24T08:30:45.061Z,16.85
2022-10-24T08:31:45.095Z,16.73
2022-10-24T08:32:45.482Z,16.87
2022-10-24T08:33:45.167Z,16.84
2022-10-24T08:34:45.200Z,16.90
2022-10-24T08:35:45.233Z,16.96
2022-10-24T08:36:45.267Z,16.95
2022-10-24T08:37:45.307Z,17.00
2022-10-24T08:38:45.338Z,17.06
2022-10-24T08:39:45.373Z,17.10
2022-10-24T08:40:45.406Z,17.18
2022-10-24T08:41:45.444Z,17.22
2022-10-24T08:42:45.744Z,17.28
2022-10-24T08:43:45.514Z,17.28
2022-10-24T08:44:45.547Z,17.33
2022-10-24T08:45:45.582Z,17.32
2022-10-24T08:46:45.617Z,17.42
2022-10-24T08:47:45.654Z,17.39
2022-10-24T08:48:45.684Z,17.42
2022-10-24T08:49:47.962Z,17.51
2022-10-24T08:50:45.756Z,17.57
2022-10-24T08:51:45.809Z,17.57
2022-10-24T08:52:46.159Z,17.58
2022-10-24T08:53:45.861Z,17.60
2022-10-24T08:54:45.894Z,17.66
2022-10-24T08:55:49.985Z,17.70
2022-10-24T08:56:45.965Z,17.76
2022-10-24T08:57:46.001Z,17.66
2022-10-24T08:58:46.037Z,17.80
2022-10-24T08:59:46.073Z,17.77
2022-10-24T09:00:46.109Z,17.76
2022-10-24T09:01:46.285Z,17.70
2022-10-24T09:02:46.571Z,17.73
2022-10-24T09:04:01.625Z,17.84
2022-10-24T09:04:46.245Z,17.86
2022-10-24T09:05:46.285Z,17.86
2022-10-24T09:06:46.319Z,17.81
2022-10-24T09:07:46.672Z,17.80
2022-10-24T09:08:46.389Z,17.94
2022-10-24T09:09:46.424Z,17.95
2022-10-24T09:10:46.458Z,17.95
2022-10-24T09:11:46.492Z,18.01
2022-10-24T09:12:46.531Z,17.96
2022-10-24T09:13:46.566Z,17.96
2022-10-24T09:14:46.599Z,18.01
2022-10-24T09:15:46.636Z,17.98
2022-10-24T09:16:46.682Z,18.01
2022-10-24T09:17:46.997Z,17.96
2022-10-24T09:18:46.741Z,18.01
2022-10-24T09:19:46.776Z,17.92
2022-10-24T09:20:46.812Z,18.02
2022-10-24T09:21:46.847Z,17.95
2022-10-24T09:22:46.886Z,17.98
2022-10-24T09:23:46.918Z,18.02
2022-10-24T09:24:46.952Z,18.05
2022-10-24T09:25:46.988Z,18.14
2022-10-24T09:26:47.025Z,18.17
2022-10-24T09:27:47.299Z,18.21
2022-10-24T09:28:47.095Z,18.35
2022-10-24T09:29:47.131Z,18.25
2022-10-24T09:30:47.166Z,18.41
2022-10-24T09:31:47.201Z,18.42
2022-10-24T09:32:47.241Z,18.41
2022-10-24T09:33:47.274Z,18.47
2022-10-24T09:34:47.312Z,18.46
2022-10-24T09:35:47.344Z,18.42
2022-10-24T09:36:47.380Z,18.47
2022-10-24T09:37:47.817Z,18.42
2022-10-24T09:38:47.451Z,18.49
2022-10-24T09:39:47.488Z,18.50
2022-10-24T09:40:47.526Z,18.51
2022-10-24T09:41:47.558Z,18.47
2022-10-24T09:42:47.595Z,18.47
2022-10-24T09:43:47.633Z,18.49
2022-10-24T09:44:47.670Z,18.59
2022-10-24T09:45:47.702Z,18.64
2022-10-24T09:46:47.744Z,18.82
2022-10-24T09:47:47.937Z,18.82
2022-10-24T09:48:47.810Z,18.90
2022-10-24T09:49:47.844Z,18.91
2022-10-24T09:50:47.881Z,19.01
2022-10-24T09:51:47.922Z,18.93
2022-10-24T09:52:47.954Z,18.84
2022-10-24T09:53:47.987Z,18.86
2022-10-24T09:54:48.024Z,18.90
2022-10-24T09:55:48.057Z,18.83
2022-10-24T09:56:52.167Z,18.84
2022-10-24T09:57:48.486Z,18.79
2022-10-24T09:58:48.169Z,18.75
2022-10-24T09:59:48.237Z,18.74
2022-10-24T10:00:48.237Z,18.79
2022-10-24T10:01:48.399Z,18.71
2022-10-24T10:02:48.311Z,18.62
2022-10-24T10:03:48.344Z,18.62
2022-10-24T10:04:48.426Z,18.60
2022-10-24T10:05:48.418Z,18.64
2022-10-24T10:06:48.453Z,18.68
2022-10-24T10:07:48.511Z,18.75
2022-10-24T10:08:48.524Z,18.75
2022-10-24T10:09:51.552Z,18.69
2022-10-24T10:10:48.625Z,18.72
2022-10-24T10:12:00.769Z,18.71
2022-10-24T10:12:48.699Z,18.74
2022-10-24T10:13:48.704Z,18.65
2022-10-24T10:14:48.739Z,18.69
2022-10-24T10:15:48.779Z,18.76
2022-10-24T10:16:48.867Z,18.68
2022-10-24T10:17:48.853Z,18.71
2022-10-24T10:18:48.881Z,18.75
2022-10-24T10:19:56.125Z,18.79
2022-10-24T10:21:52.982Z,18.78
2022-10-24T10:22:53.007Z,18.78
2022-10-24T10:24:57.085Z,18.79
2022-10-24T10:25:57.094Z,18.79
2022-10-24T10:28:03.116Z,18.83
2022-10-24T10:29:01.174Z,18.69
2022-10-24T10:31:05.227Z,18.74
2022-10-24T10:32:05.259Z,18.74
2022-10-24T10:34:09.346Z,18.79
2022-10-24T10:35:09.347Z,18.76
2022-10-24T10:37:13.433Z,18.79
2022-10-24T10:38:13.430Z,18.74
2022-10-24T10:40:17.494Z,18.84
2022-10-24T10:41:17.525Z,18.78
2022-10-24T10:43:21.605Z,18.76
2022-10-24T10:44:21.609Z,18.91
2022-10-24T10:46:14.584Z,18.89
2022-10-24T10:47:14.614Z,18.91
2022-10-24T10:49:18.699Z,18.90
2022-10-24T10:52:22.787Z,18.96
2022-10-24T10:53:22.787Z,19.02
2022-10-24T10:55:26.877Z,18.89
2022-10-24T10:56:26.878Z,18.91
2022-10-24T10:58:30.999Z,18.90
2022-10-24T10:59:30.962Z,18.89
2022-10-24T11:01:35.127Z,18.79
2022-10-24T11:02:35.175Z,18.90
2022-10-24T11:04:39.104Z,18.87
2022-10-24T11:05:39.145Z,18.93
2022-10-24T11:07:43.589Z,18.84
2022-10-24T11:08:43.218Z,18.91
2022-10-24T11:10:47.327Z,18.83
2022-10-24T11:11:47.308Z,18.94
2022-10-24T11:13:51.363Z,18.89
2022-10-24T11:14:51.397Z,18.89
2022-10-24T11:16:44.366Z,18.87
2022-10-24T11:17:44.773Z,18.93
2022-10-24T11:19:48.483Z,18.87
2022-10-24T11:20:48.493Z,19.02
2022-10-24T11:22:52.545Z,18.99
2022-10-24T11:23:52.574Z,19.01
2022-10-24T11:25:56.633Z,18.99
2022-10-24T11:26:56.667Z,19.01
2022-10-24T11:29:00.721Z,19.05
2022-10-24T11:30:00.751Z,19.05
2022-10-24T11:33:04.838Z,18.97
2022-10-24T11:35:08.894Z,19.06
2022-10-24T11:36:08.927Z,19.06
2022-10-24T11:38:12.978Z,18.91
2022-10-24T11:39:13.010Z,18.89
2022-10-24T11:41:17.099Z,18.99
2022-10-24T11:42:17.099Z,18.91
2022-10-24T11:44:21.154Z,19.05
2022-10-24T11:45:21.186Z,18.99
2022-10-24T11:47:25.245Z,18.99
2022-10-24T11:48:25.277Z,18.96
2022-10-24T11:50:29.328Z,18.89
2022-10-24T11:51:29.360Z,19.01
2022-10-24T11:53:33.412Z,18.99
2022-10-24T11:54:33.446Z,19.06
2022-10-24T11:56:37.568Z,19.05
2022-10-24T11:57:37.573Z,19.05
2022-10-24T11:59:30.557Z,19.02
2022-10-24T12:00:30.584Z,19.05
2022-10-24T12:02:34.691Z,19.05
2022-10-24T12:03:34.649Z,19.02
2022-10-24T12:06:38.788Z,19.07
2022-10-24T12:08:42.888Z,19.09
2022-10-24T12:09:42.880Z,19.10
2022-10-24T12:11:46.930Z,19.25
2022-10-24T12:12:47.814Z,19.20
2022-10-24T12:14:39.967Z,19.28
2022-10-24T12:15:41.456Z,19.38
2022-10-24T12:17:33.053Z,19.42
2022-10-24T12:18:33.063Z,19.45
2022-10-24T12:20:37.122Z,19.53
2022-10-24T12:21:37.141Z,19.62
2022-10-24T12:23:41.245Z,19.52
2022-10-24T12:24:41.274Z,19.53
2022-10-24T12:26:34.248Z,19.50
2022-10-24T12:27:34.279Z,19.53
2022-10-24T12:28:34.316Z,19.53
2022-10-24T12:29:34.356Z,19.60
2022-10-24T12:30:34.386Z,19.53
2022-10-24T12:31:34.423Z,19.52
2022-10-24T12:32:34.457Z,19.49
2022-10-24T12:33:34.495Z,19.50
2022-10-24T12:34:34.533Z,19.52
2022-10-24T12:35:34.567Z,19.57
2022-10-24T12:36:34.607Z,19.60
2022-10-24T12:37:34.639Z,19.50
2022-10-24T12:38:34.674Z,19.57
2022-10-24T12:39:34.714Z,19.52
2022-10-24T12:40:34.746Z,19.62
2022-10-24T12:41:34.783Z,19.53
2022-10-24T12:42:34.819Z,19.53
2022-10-24T12:43:34.865Z,19.53
2022-10-24T12:44:34.906Z,19.57
2022-10-24T12:45:34.932Z,19.55
2022-10-24T12:46:34.965Z,19.55
2022-10-24T12:47:35.001Z,19.55
2022-10-24T12:48:35.038Z,19.50
2022-10-24T12:49:35.073Z,19.52
2022-10-24T12:50:35.107Z,19.53
2022-10-24T12:51:35.149Z,19.60
2022-10-24T12:52:35.182Z,19.53
2022-10-24T12:53:35.222Z,19.57
2022-10-24T12:54:35.255Z,19.57
2022-10-24T12:55:39.112Z,19.50
2022-10-24T12:56:35.325Z,19.61
2022-10-24T12:57:35.367Z,19.67
2022-10-24T12:58:35.399Z,19.70
2022-10-24T12:59:35.435Z,19.79
2022-10-24T13:00:35.471Z,20.05
2022-10-24T13:01:35.778Z,20.17
2022-10-24T13:02:35.591Z,20.23
2022-10-24T13:03:35.579Z,20.31
2022-10-24T13:04:35.663Z,20.38
2022-10-24T13:05:35.654Z,20.46
2022-10-24T13:06:35.687Z,20.56
2022-10-24T13:07:35.725Z,20.60
2022-10-24T13:08:35.769Z,20.60
2022-10-24T13:09:35.801Z,20.69
2022-10-24T13:10:35.835Z,20.71
2022-10-24T13:11:35.883Z,20.66
2022-10-24T13:12:35.910Z,20.69
2022-10-24T13:13:35.948Z,20.60
2022-10-24T13:14:35.982Z,20.66
2022-10-24T13:15:36.023Z,20.57
2022-10-24T13:16:36.056Z,20.60
2022-10-24T13:17:36.093Z,20.73
2022-10-24T13:18:36.131Z,20.58
2022-10-24T13:19:36.166Z,20.60
2022-10-24T13:20:36.202Z,20.76
2022-10-24T13:22:36.283Z,20.83
2022-10-24T13:23:36.314Z,20.90
2022-10-24T13:24:36.350Z,20.90
2022-10-24T13:25:36.386Z,20.90
2022-10-24T13:26:36.423Z,20.90
2022-10-24T13:27:36.462Z,20.96
2022-10-24T13:28:36.499Z,20.98
2022-10-24T13:29:36.533Z,21.06
2022-10-24T13:30:36.571Z,21.09
2022-10-24T13:31:36.606Z,21.19
2022-10-24T13:32:36.644Z,21.27
2022-10-24T13:33:36.684Z,21.38
2022-10-24T13:34:36.720Z,21.53
2022-10-24T13:35:36.761Z,21.71
2022-10-24T13:36:36.790Z,21.94
2022-10-24T13:37:36.828Z,22.20
2022-10-24T13:38:36.867Z,22.35
2022-10-24T13:39:39.472Z,22.57
2022-10-24T13:40:36.942Z,22.74
2022-10-24T13:41:36.978Z,22.99
2022-10-24T13:42:40.058Z,23.34
2022-10-24T13:43:37.052Z,23.74
2022-10-24T13:44:37.087Z,23.84
2022-10-24T13:45:37.123Z,24.08
2022-10-24T13:46:37.219Z,24.36
2022-10-24T13:47:37.197Z,24.77
2022-10-24T13:48:37.241Z,25.14
2022-10-24T13:49:37.274Z,25.22
2022-10-24T13:50:37.312Z,25.17
2022-10-24T13:51:37.348Z,25.23
2022-10-24T13:52:37.393Z,25.23
2022-10-24T13:53:37.423Z,25.12
2022-10-24T13:54:38.201Z,24.75
2022-10-24T13:55:37.497Z,24.33
2022-10-24T13:56:37.532Z,24.16
2022-10-24T13:57:37.578Z,24.09
2022-10-24T13:58:40.879Z,23.82
2022-10-24T13:59:37.654Z,23.67
2022-10-24T14:00:37.682Z,23.41
2022-10-24T14:01:37.834Z,23.06
2022-10-24T14:02:37.775Z,22.75
2022-10-24T14:03:42.332Z,22.67